sensor_id;sensor_type;location;lat;lon;timestamp;P1;durP1;ratioP1;P2;durP2;ratioP2
4547;SDS011;2286;51.570;7.090;2022-08-18T00:01:19;75.67;;;68.67;;
4547;SDS011;2286;51.570;7.090;2022-08-18T00:03:47;74.77;;;67.70;;
4547;SDS011;2286;51.570;7.090;2022-08-18T00:06:15;81.40;;;73.33;;
4547;SDS011;2286;51.570;7.090;2022-08-18T00:08:42;78.83;;;71.23;;
4547;SDS011;2286;51.570;7.090;2022-08-18T00:11:09;78.23;;;71.03;;
4547;SDS011;2286;51.570;7.090;2022-08-18T00:13:37;77.53;;;69.90;;
4547;SDS011;2286;51.570;7.090;2022-08-18T00:16:05;80.57;;;73.00;;
4547;SDS011;2286;51.570;7.090;2022-08-18T00:18:32;79.47;;;71.60;;
4547;SDS011;2286;51.570;7.090;2022-08-18T00:20:59;76.13;;;68.90;;
4547;SDS011;2286;51.570;7.090;2022-08-18T00:23:27;76.10;;;69.00;;
4547;SDS011;2286;51.570;7.090;2022-08-18T00:25:56;72.60;;;65.90;;
4547;SDS011;2286;51.570;7.090;2022-08-18T00:28:24;75.87;;;68.80;;
4547;SDS011;2286;51.570;7.090;2022-08-18T00:30:52;75.97;;;68.97;;
4547;SDS011;2286;51.570;7.090;2022-08-18T00:33:19;74.17;;;66.87;;
4547;SDS011;2286;51.570;7.090;2022-08-18T00:35:47;74.20;;;67.43;;
4547;SDS011;2286;51.570;7.090;2022-08-18T00:38:14;72.80;;;65.83;;
4547;SDS011;2286;51.570;7.090;2022-08-18T00:40:43;72.93;;;66.27;;
4547;SDS011;2286;51.570;7.090;2022-08-18T00:43:15;79.87;;;72.33;;
4547;SDS011;2286;51.570;7.090;2022-08-18T00:45:45;77.73;;;70.13;;
4547;SDS011;2286;51.570;7.090;2022-08-18T00:48:14;72.37;;;65.63;;
4547;SDS011;2286;51.570;7.090;2022-08-18T00:50:42;77.23;;;70.00;;
4547;SDS011;2286;51.570;7.090;2022-08-18T00:53:14;78.90;;;71.63;;
4547;SDS011;2286;51.570;7.090;2022-08-18T00:55:44;79.00;;;71.10;;
4547;SDS011;2286;51.570;7.090;2022-08-18T00:58:14;83.07;;;74.77;;
4547;SDS011;2286;51.570;7.090;2022-08-18T01:00:45;84.00;;;76.00;;
4547;SDS011;2286;51.570;7.090;2022-08-18T01:03:15;88.10;;;79.50;;
4547;SDS011;2286;51.570;7.090;2022-08-18T01:05:46;86.57;;;77.80;;
4547;SDS011;2286;51.570;7.090;2022-08-18T01:08:17;88.77;;;80.10;;
4547;SDS011;2286;51.570;7.090;2022-08-18T01:10:44;89.70;;;80.50;;
4547;SDS011;2286;51.570;7.090;2022-08-18T01:13:12;92.30;;;82.83;;
4547;SDS011;2286;51.570;7.090;2022-08-18T01:15:39;88.30;;;79.70;;
4547;SDS011;2286;51.570;7.090;2022-08-18T01:18:06;88.60;;;79.50;;
4547;SDS011;2286;51.570;7.090;2022-08-18T01:20:56;93.90;;;84.40;;
4547;SDS011;2286;51.570;7.090;2022-08-18T01:23:55;95.30;;;85.40;;
4547;SDS011;2286;51.570;7.090;2022-08-18T01:26:23;90.47;;;81.43;;
4547;SDS011;2286;51.570;7.090;2022-08-18T01:28:51;92.23;;;83.03;;
4547;SDS011;2286;51.570;7.090;2022-08-18T01:31:28;96.03;;;85.93;;
4547;SDS011;2286;51.570;7.090;2022-08-18T01:34:02;92.60;;;83.33;;
4547;SDS011;2286;51.570;7.090;2022-08-18T01:36:30;87.20;;;78.73;;
4547;SDS011;2286;51.570;7.090;2022-08-18T01:39:03;92.07;;;82.87;;
4547;SDS011;2286;51.570;7.090;2022-08-18T01:41:31;92.80;;;83.83;;
4547;SDS011;2286;51.570;7.090;2022-08-18T01:43:58;89.20;;;80.57;;
4547;SDS011;2286;51.570;7.090;2022-08-18T01:46:26;92.43;;;83.67;;
4547;SDS011;2286;51.570;7.090;2022-08-18T01:48:54;93.80;;;84.80;;
4547;SDS011;2286;51.570;7.090;2022-08-18T01:51:22;90.23;;;81.57;;
4547;SDS011;2286;51.570;7.090;2022-08-18T01:53:49;90.50;;;81.63;;
4547;SDS011;2286;51.570;7.090;2022-08-18T01:56:17;92.57;;;83.17;;
4547;SDS011;2286;51.570;7.090;2022-08-18T01:58:44;92.77;;;82.77;;
4547;SDS011;2286;51.570;7.090;2022-08-18T02:01:12;92.13;;;82.50;;
4547;SDS011;2286;51.570;7.090;2022-08-18T02:03:40;92.60;;;83.17;;
4547;SDS011;2286;51.570;7.090;2022-08-18T02:06:11;90.53;;;81.47;;
4547;SDS011;2286;51.570;7.090;2022-08-18T02:08:39;97.20;;;87.50;;
4547;SDS011;2286;51.570;7.090;2022-08-18T02:11:06;94.37;;;84.57;;
4547;SDS011;2286;51.570;7.090;2022-08-18T02:13:35;91.50;;;82.00;;
4547;SDS011;2286;51.570;7.090;2022-08-18T02:16:02;89.90;;;80.70;;
4547;SDS011;2286;51.570;7.090;2022-08-18T02:18:30;89.13;;;80.03;;
4547;SDS011;2286;51.570;7.090;2022-08-18T02:21:05;90.50;;;81.37;;
4547;SDS011;2286;51.570;7.090;2022-08-18T02:23:33;92.53;;;82.93;;
4547;SDS011;2286;51.570;7.090;2022-08-18T02:26:02;85.90;;;77.40;;
4547;SDS011;2286;51.570;7.090;2022-08-18T02:28:30;91.23;;;82.00;;
4547;SDS011;2286;51.570;7.090;2022-08-18T02:31:00;91.53;;;82.20;;
4547;SDS011;2286;51.570;7.090;2022-08-18T02:33:30;97.00;;;87.10;;
4547;SDS011;2286;51.570;7.090;2022-08-18T02:35:58;94.47;;;84.60;;
4547;SDS011;2286;51.570;7.090;2022-08-18T02:38:25;97.47;;;87.23;;
4547;SDS011;2286;51.570;7.090;2022-08-18T02:40:53;97.73;;;87.10;;
4547;SDS011;2286;51.570;7.090;2022-08-18T02:43:21;98.60;;;87.90;;
4547;SDS011;2286;51.570;7.090;2022-08-18T02:45:47;98.10;;;87.80;;
4547;SDS011;2286;51.570;7.090;2022-08-18T02:48:16;95.93;;;85.93;;
4547;SDS011;2286;51.570;7.090;2022-08-18T02:50:45;91.07;;;81.40;;
4547;SDS011;2286;51.570;7.090;2022-08-18T02:53:12;98.63;;;87.90;;
4547;SDS011;2286;51.570;7.090;2022-08-18T02:55:45;98.43;;;87.50;;
4547;SDS011;2286;51.570;7.090;2022-08-18T02:58:12;103.17;;;90.30;;
4547;SDS011;2286;51.570;7.090;2022-08-18T03:00:39;105.43;;;90.10;;
4547;SDS011;2286;51.570;7.090;2022-08-18T03:03:07;112.93;;;93.00;;
4547;SDS011;2286;51.570;7.090;2022-08-18T03:05:35;117.53;;;94.20;;
4547;SDS011;2286;51.570;7.090;2022-08-18T03:08:02;108.20;;;90.77;;
4547;SDS011;2286;51.570;7.090;2022-08-18T03:10:29;103.10;;;87.23;;
4547;SDS011;2286;51.570;7.090;2022-08-18T03:12:56;116.30;;;93.30;;
4547;SDS011;2286;51.570;7.090;2022-08-18T03:15:23;110.60;;;90.30;;
4547;SDS011;2286;51.570;7.090;2022-08-18T03:17:50;112.90;;;92.00;;
4547;SDS011;2286;51.570;7.090;2022-08-18T03:20:17;107.20;;;88.10;;
4547;SDS011;2286;51.570;7.090;2022-08-18T03:22:45;117.70;;;91.70;;
4547;SDS011;2286;51.570;7.090;2022-08-18T03:25:12;121.03;;;94.40;;
4547;SDS011;2286;51.570;7.090;2022-08-18T03:27:39;130.13;;;95.93;;
4547;SDS011;2286;51.570;7.090;2022-08-18T03:30:06;114.33;;;90.33;;
4547;SDS011;2286;51.570;7.090;2022-08-18T03:32:33;125.37;;;93.40;;
4547;SDS011;2286;51.570;7.090;2022-08-18T03:35:00;132.13;;;92.27;;
4547;SDS011;2286;51.570;7.090;2022-08-18T03:37:27;136.57;;;97.00;;
4547;SDS011;2286;51.570;7.090;2022-08-18T03:39:56;147.60;;;98.70;;
4547;SDS011;2286;51.570;7.090;2022-08-18T03:42:23;165.77;;;103.07;;
4547;SDS011;2286;51.570;7.090;2022-08-18T03:44:49;167.77;;;107.80;;
4547;SDS011;2286;51.570;7.090;2022-08-18T03:47:16;162.20;;;107.87;;
4547;SDS011;2286;51.570;7.090;2022-08-18T03:49:43;177.10;;;107.93;;
4547;SDS011;2286;51.570;7.090;2022-08-18T03:52:10;179.43;;;106.63;;
4547;SDS011;2286;51.570;7.090;2022-08-18T03:54:37;191.20;;;108.23;;
4547;SDS011;2286;51.570;7.090;2022-08-18T03:57:07;195.57;;;111.57;;
4547;SDS011;2286;51.570;7.090;2022-08-18T03:59:35;181.47;;;108.70;;
4547;SDS011;2286;51.570;7.090;2022-08-18T04:02:03;179.77;;;108.00;;
4547;SDS011;2286;51.570;7.090;2022-08-18T04:04:30;183.20;;;112.93;;
4547;SDS011;2286;51.570;7.090;2022-08-18T04:07:00;188.37;;;108.27;;
4547;SDS011;2286;51.570;7.090;2022-08-18T04:09:29;185.27;;;110.10;;
4547;SDS011;2286;51.570;7.090;2022-08-18T04:11:57;192.90;;;107.70;;
4547;SDS011;2286;51.570;7.090;2022-08-18T04:14:29;179.00;;;103.60;;
4547;SDS011;2286;51.570;7.090;2022-08-18T04:16:56;167.27;;;97.27;;
4547;SDS011;2286;51.570;7.090;2022-08-18T04:19:23;162.10;;;94.77;;
4547;SDS011;2286;51.570;7.090;2022-08-18T04:21:51;156.33;;;95.00;;
4547;SDS011;2286;51.570;7.090;2022-08-18T04:24:18;152.63;;;89.57;;
4547;SDS011;2286;51.570;7.090;2022-08-18T04:26:46;156.47;;;91.83;;
4547;SDS011;2286;51.570;7.090;2022-08-18T04:29:13;146.23;;;87.57;;
4547;SDS011;2286;51.570;7.090;2022-08-18T04:31:43;145.53;;;87.13;;
4547;SDS011;2286;51.570;7.090;2022-08-18T04:34:10;149.40;;;87.50;;
4547;SDS011;2286;51.570;7.090;2022-08-18T04:36:37;143.00;;;88.10;;
4547;SDS011;2286;51.570;7.090;2022-08-18T04:39:06;127.13;;;80.87;;
4547;SDS011;2286;51.570;7.090;2022-08-18T04:41:38;133.50;;;80.67;;
4547;SDS011;2286;51.570;7.090;2022-08-18T04:44:07;132.93;;;79.30;;
4547;SDS011;2286;51.570;7.090;2022-08-18T04:46:35;126.87;;;79.70;;
4547;SDS011;2286;51.570;7.090;2022-08-18T04:49:06;133.10;;;82.23;;
4547;SDS011;2286;51.570;7.090;2022-08-18T04:51:34;123.70;;;79.00;;
4547;SDS011;2286;51.570;7.090;2022-08-18T04:54:01;128.53;;;83.97;;
4547;SDS011;2286;51.570;7.090;2022-08-18T04:56:29;128.83;;;82.90;;
4547;SDS011;2286;51.570;7.090;2022-08-18T04:59:00;113.70;;;76.30;;
4547;SDS011;2286;51.570;7.090;2022-08-18T05:01:31;107.73;;;72.80;;
4547;SDS011;2286;51.570;7.090;2022-08-18T05:04:00;94.63;;;69.47;;
4547;SDS011;2286;51.570;7.090;2022-08-18T05:06:29;86.87;;;63.37;;
4547;SDS011;2286;51.570;7.090;2022-08-18T05:08:57;86.50;;;66.47;;
4547;SDS011;2286;51.570;7.090;2022-08-18T05:11:27;95.07;;;69.10;;
4547;SDS011;2286;51.570;7.090;2022-08-18T05:13:57;99.63;;;74.53;;
4547;SDS011;2286;51.570;7.090;2022-08-18T05:16:25;94.90;;;70.10;;
4547;SDS011;2286;51.570;7.090;2022-08-18T05:18:53;91.73;;;66.37;;
4547;SDS011;2286;51.570;7.090;2022-08-18T05:21:20;86.80;;;64.53;;
4547;SDS011;2286;51.570;7.090;2022-08-18T05:23:49;95.40;;;69.40;;
4547;SDS011;2286;51.570;7.090;2022-08-18T05:26:17;89.57;;;65.10;;
4547;SDS011;2286;51.570;7.090;2022-08-18T05:28:44;92.03;;;66.00;;
4547;SDS011;2286;51.570;7.090;2022-08-18T05:31:13;84.13;;;63.67;;
4547;SDS011;2286;51.570;7.090;2022-08-18T05:33:41;89.63;;;65.23;;
4547;SDS011;2286;51.570;7.090;2022-08-18T05:36:10;81.70;;;64.90;;
4547;SDS011;2286;51.570;7.090;2022-08-18T05:38:55;85.43;;;64.33;;
4547;SDS011;2286;51.570;7.090;2022-08-18T05:41:41;89.13;;;66.30;;
4547;SDS011;2286;51.570;7.090;2022-08-18T05:44:12;92.27;;;64.90;;
4547;SDS011;2286;51.570;7.090;2022-08-18T05:46:45;91.20;;;66.40;;
4547;SDS011;2286;51.570;7.090;2022-08-18T05:49:16;92.90;;;64.67;;
4547;SDS011;2286;51.570;7.090;2022-08-18T05:51:45;85.43;;;61.70;;
4547;SDS011;2286;51.570;7.090;2022-08-18T05:54:15;80.87;;;59.20;;
4547;SDS011;2286;51.570;7.090;2022-08-18T05:57:01;78.27;;;60.53;;
4547;SDS011;2286;51.570;7.090;2022-08-18T05:59:34;78.03;;;62.93;;
4547;SDS011;2286;51.570;7.090;2022-08-18T06:02:04;85.70;;;64.80;;
4547;SDS011;2286;51.570;7.090;2022-08-18T06:04:39;79.50;;;60.23;;
4547;SDS011;2286;51.570;7.090;2022-08-18T06:07:12;79.00;;;60.70;;
4547;SDS011;2286;51.570;7.090;2022-08-18T06:09:44;90.23;;;68.20;;
4547;SDS011;2286;51.570;7.090;2022-08-18T06:12:18;95.30;;;71.67;;
4547;SDS011;2286;51.570;7.090;2022-08-18T06:14:51;104.10;;;73.47;;
4547;SDS011;2286;51.570;7.090;2022-08-18T06:17:32;97.23;;;73.00;;
4547;SDS011;2286;51.570;7.090;2022-08-18T06:20:06;101.80;;;71.57;;
4547;SDS011;2286;51.570;7.090;2022-08-18T06:22:42;95.87;;;69.63;;
4547;SDS011;2286;51.570;7.090;2022-08-18T06:25:19;93.43;;;67.97;;
4547;SDS011;2286;51.570;7.090;2022-08-18T06:27:52;91.57;;;65.63;;
4547;SDS011;2286;51.570;7.090;2022-08-18T06:30:29;92.03;;;68.30;;
4547;SDS011;2286;51.570;7.090;2022-08-18T06:33:12;98.83;;;67.37;;
4547;SDS011;2286;51.570;7.090;2022-08-18T06:35:50;80.20;;;65.67;;
4547;SDS011;2286;51.570;7.090;2022-08-18T06:38:31;82.53;;;65.03;;
4547;SDS011;2286;51.570;7.090;2022-08-18T06:41:11;86.83;;;65.60;;
4547;SDS011;2286;51.570;7.090;2022-08-18T06:43:53;92.13;;;71.33;;
4547;SDS011;2286;51.570;7.090;2022-08-18T06:46:27;90.30;;;67.40;;
4547;SDS011;2286;51.570;7.090;2022-08-18T06:49:03;88.07;;;66.43;;
4547;SDS011;2286;51.570;7.090;2022-08-18T06:51:32;91.27;;;67.20;;
4547;SDS011;2286;51.570;7.090;2022-08-18T06:54:01;85.23;;;67.67;;
4547;SDS011;2286;51.570;7.090;2022-08-18T06:56:35;85.20;;;66.80;;
4547;SDS011;2286;51.570;7.090;2022-08-18T06:59:18;88.13;;;66.30;;
4547;SDS011;2286;51.570;7.090;2022-08-18T07:01:50;88.77;;;68.30;;
4547;SDS011;2286;51.570;7.090;2022-08-18T07:04:30;81.00;;;65.63;;
4547;SDS011;2286;51.570;7.090;2022-08-18T07:07:11;77.57;;;62.17;;
4547;SDS011;2286;51.570;7.090;2022-08-18T07:09:39;81.63;;;66.10;;
4547;SDS011;2286;51.570;7.090;2022-08-18T07:12:08;82.10;;;60.87;;
4547;SDS011;2286;51.570;7.090;2022-08-18T07:14:43;85.23;;;64.20;;
4547;SDS011;2286;51.570;7.090;2022-08-18T07:17:12;81.03;;;63.60;;
4547;SDS011;2286;51.570;7.090;2022-08-18T07:19:51;70.23;;;60.10;;
4547;SDS011;2286;51.570;7.090;2022-08-18T07:22:24;79.03;;;61.67;;
4547;SDS011;2286;51.570;7.090;2022-08-18T07:24:52;71.10;;;59.53;;
4547;SDS011;2286;51.570;7.090;2022-08-18T07:27:38;73.73;;;58.80;;
4547;SDS011;2286;51.570;7.090;2022-08-18T07:30:08;78.17;;;61.50;;
4547;SDS011;2286;51.570;7.090;2022-08-18T07:32:40;71.17;;;59.90;;
4547;SDS011;2286;51.570;7.090;2022-08-18T07:35:12;73.23;;;59.17;;
4547;SDS011;2286;51.570;7.090;2022-08-18T07:37:43;67.90;;;54.63;;
4547;SDS011;2286;51.570;7.090;2022-08-18T07:40:19;76.67;;;59.13;;
4547;SDS011;2286;51.570;7.090;2022-08-18T07:42:53;61.40;;;53.13;;
4547;SDS011;2286;51.570;7.090;2022-08-18T07:45:27;64.23;;;54.03;;
4547;SDS011;2286;51.570;7.090;2022-08-18T07:47:59;66.93;;;56.00;;
4547;SDS011;2286;51.570;7.090;2022-08-18T07:50:33;65.87;;;54.60;;
4547;SDS011;2286;51.570;7.090;2022-08-18T07:53:25;62.17;;;55.43;;
4547;SDS011;2286;51.570;7.090;2022-08-18T07:56:01;58.97;;;52.57;;
4547;SDS011;2286;51.570;7.090;2022-08-18T07:58:39;72.33;;;58.57;;
4547;SDS011;2286;51.570;7.090;2022-08-18T08:01:11;63.20;;;54.27;;
4547;SDS011;2286;51.570;7.090;2022-08-18T08:03:49;58.90;;;51.97;;
4547;SDS011;2286;51.570;7.090;2022-08-18T08:06:22;59.27;;;52.90;;
4547;SDS011;2286;51.570;7.090;2022-08-18T08:08:56;57.70;;;51.47;;
4547;SDS011;2286;51.570;7.090;2022-08-18T08:11:35;57.93;;;51.83;;
4547;SDS011;2286;51.570;7.090;2022-08-18T08:14:15;55.40;;;49.53;;
4547;SDS011;2286;51.570;7.090;2022-08-18T08:16:56;53.47;;;48.17;;
4547;SDS011;2286;51.570;7.090;2022-08-18T08:19:41;53.93;;;48.53;;
4547;SDS011;2286;51.570;7.090;2022-08-18T08:22:30;54.00;;;48.67;;
4547;SDS011;2286;51.570;7.090;2022-08-18T08:25:04;52.27;;;47.17;;
4547;SDS011;2286;51.570;7.090;2022-08-18T08:27:37;50.33;;;45.20;;
4547;SDS011;2286;51.570;7.090;2022-08-18T08:30:17;49.00;;;44.17;;
4547;SDS011;2286;51.570;7.090;2022-08-18T08:32:49;45.33;;;41.00;;
4547;SDS011;2286;51.570;7.090;2022-08-18T08:35:30;40.57;;;36.70;;
4547;SDS011;2286;51.570;7.090;2022-08-18T08:38:02;38.47;;;34.93;;
4547;SDS011;2286;51.570;7.090;2022-08-18T08:40:40;38.47;;;34.87;;
4547;SDS011;2286;51.570;7.090;2022-08-18T08:43:14;37.00;;;33.70;;
4547;SDS011;2286;51.570;7.090;2022-08-18T08:45:50;39.07;;;35.50;;
4547;SDS011;2286;51.570;7.090;2022-08-18T08:48:25;37.10;;;33.67;;
4547;SDS011;2286;51.570;7.090;2022-08-18T08:50:56;38.50;;;35.00;;
4547;SDS011;2286;51.570;7.090;2022-08-18T08:53:26;36.67;;;33.13;;
4547;SDS011;2286;51.570;7.090;2022-08-18T08:56:00;35.47;;;32.17;;
4547;SDS011;2286;51.570;7.090;2022-08-18T08:58:32;35.13;;;31.90;;
4547;SDS011;2286;51.570;7.090;2022-08-18T09:01:06;35.37;;;32.07;;
4547;SDS011;2286;51.570;7.090;2022-08-18T09:03:48;34.53;;;31.50;;
4547;SDS011;2286;51.570;7.090;2022-08-18T09:06:24;35.83;;;32.53;;
4547;SDS011;2286;51.570;7.090;2022-08-18T09:09:04;33.83;;;30.63;;
4547;SDS011;2286;51.570;7.090;2022-08-18T09:11:44;38.40;;;34.50;;
4547;SDS011;2286;51.570;7.090;2022-08-18T09:14:43;37.63;;;33.80;;
4547;SDS011;2286;51.570;7.090;2022-08-18T09:17:28;36.50;;;33.13;;
4547;SDS011;2286;51.570;7.090;2022-08-18T09:20:20;36.50;;;32.87;;
4547;SDS011;2286;51.570;7.090;2022-08-18T09:23:07;33.83;;;30.73;;
4547;SDS011;2286;51.570;7.090;2022-08-18T09:25:45;33.43;;;29.93;;
4547;SDS011;2286;51.570;7.090;2022-08-18T09:28:18;31.30;;;28.53;;
4547;SDS011;2286;51.570;7.090;2022-08-18T09:33:49;27.57;;;25.27;;
4547;SDS011;2286;51.570;7.090;2022-08-18T09:36:40;26.97;;;24.53;;
4547;SDS011;2286;51.570;7.090;2022-08-18T09:39:20;27.60;;;25.27;;
4547;SDS011;2286;51.570;7.090;2022-08-18T09:42:10;29.10;;;26.10;;
4547;SDS011;2286;51.570;7.090;2022-08-18T09:50:37;27.20;;;24.70;;
4547;SDS011;2286;51.570;7.090;2022-08-18T09:53:36;26.17;;;24.00;;
4547;SDS011;2286;51.570;7.090;2022-08-18T10:05:37;21.40;;;19.30;;
4547;SDS011;2286;51.570;7.090;2022-08-18T10:11:18;19.33;;;17.60;;
4547;SDS011;2286;51.570;7.090;2022-08-18T10:13:58;18.50;;;16.80;;
4547;SDS011;2286;51.570;7.090;2022-08-18T10:16:34;17.40;;;15.80;;
4547;SDS011;2286;51.570;7.090;2022-08-18T10:19:13;17.27;;;15.67;;
4547;SDS011;2286;51.570;7.090;2022-08-18T10:24:32;18.20;;;16.60;;
4547;SDS011;2286;51.570;7.090;2022-08-18T10:27:02;16.63;;;15.20;;
4547;SDS011;2286;51.570;7.090;2022-08-18T10:29:48;16.83;;;15.50;;
4547;SDS011;2286;51.570;7.090;2022-08-18T10:41:18;15.13;;;12.33;;
4547;SDS011;2286;51.570;7.090;2022-08-18T10:43:48;10.87;;;9.90;;
4547;SDS011;2286;51.570;7.090;2022-08-18T10:46:18;10.50;;;9.50;;
4547;SDS011;2286;51.570;7.090;2022-08-18T10:48:58;11.90;;;10.70;;
4547;SDS011;2286;51.570;7.090;2022-08-18T10:51:47;11.40;;;10.40;;
4547;SDS011;2286;51.570;7.090;2022-08-18T10:54:43;11.83;;;10.93;;
4547;SDS011;2286;51.570;7.090;2022-08-18T10:57:36;12.17;;;10.97;;
4547;SDS011;2286;51.570;7.090;2022-08-18T11:00:17;9.90;;;9.20;;
4547;SDS011;2286;51.570;7.090;2022-08-18T11:02:51;11.60;;;10.70;;
4547;SDS011;2286;51.570;7.090;2022-08-18T11:05:30;12.67;;;8.97;;
4547;SDS011;2286;51.570;7.090;2022-08-18T11:07:57;11.70;;;10.63;;
4547;SDS011;2286;51.570;7.090;2022-08-18T11:10:35;11.03;;;10.23;;
4547;SDS011;2286;51.570;7.090;2022-08-18T11:13:07;11.90;;;10.90;;
4547;SDS011;2286;51.570;7.090;2022-08-18T11:15:46;9.43;;;8.67;;
4547;SDS011;2286;51.570;7.090;2022-08-18T11:18:33;12.40;;;11.50;;
4547;SDS011;2286;51.570;7.090;2022-08-18T11:21:20;10.40;;;9.70;;
4547;SDS011;2286;51.570;7.090;2022-08-18T11:24:00;10.80;;;9.97;;
4547;SDS011;2286;51.570;7.090;2022-08-18T11:26:33;10.70;;;9.90;;
4547;SDS011;2286;51.570;7.090;2022-08-18T11:29:15;9.03;;;8.30;;
4547;SDS011;2286;51.570;7.090;2022-08-18T11:31:47;11.53;;;10.63;;
4547;SDS011;2286;51.570;7.090;2022-08-18T11:34:16;10.50;;;9.60;;
4547;SDS011;2286;51.570;7.090;2022-08-18T11:36:53;11.73;;;10.70;;
4547;SDS011;2286;51.570;7.090;2022-08-18T11:39:21;9.00;;;8.40;;
4547;SDS011;2286;51.570;7.090;2022-08-18T11:41:50;9.70;;;8.90;;
4547;SDS011;2286;51.570;7.090;2022-08-18T11:44:18;10.10;;;9.30;;
4547;SDS011;2286;51.570;7.090;2022-08-18T11:46:48;10.40;;;9.57;;
4547;SDS011;2286;51.570;7.090;2022-08-18T11:49:25;9.40;;;8.60;;
4547;SDS011;2286;51.570;7.090;2022-08-18T11:51:57;9.00;;;8.40;;
4547;SDS011;2286;51.570;7.090;2022-08-18T11:54:32;9.07;;;8.47;;
4547;SDS011;2286;51.570;7.090;2022-08-18T11:59:54;7.77;;;7.23;;
4547;SDS011;2286;51.570;7.090;2022-08-18T12:02:22;8.03;;;7.40;;
4547;SDS011;2286;51.570;7.090;2022-08-18T12:04:51;8.97;;;8.27;;
4547;SDS011;2286;51.570;7.090;2022-08-18T12:07:26;9.20;;;8.50;;
4547;SDS011;2286;51.570;7.090;2022-08-18T12:12:46;9.20;;;8.50;;
4547;SDS011;2286;51.570;7.090;2022-08-18T12:15:26;7.70;;;7.20;;
4547;SDS011;2286;51.570;7.090;2022-08-18T12:17:55;17.97;;;9.77;;
4547;SDS011;2286;51.570;7.090;2022-08-18T12:20:22;10.40;;;8.60;;
4547;SDS011;2286;51.570;7.090;2022-08-18T12:22:49;8.60;;;7.90;;
4547;SDS011;2286;51.570;7.090;2022-08-18T12:25:20;8.77;;;8.10;;
4547;SDS011;2286;51.570;7.090;2022-08-18T12:27:49;11.03;;;9.40;;
4547;SDS011;2286;51.570;7.090;2022-08-18T12:30:16;11.00;;;10.20;;
4547;SDS011;2286;51.570;7.090;2022-08-18T12:32:43;12.73;;;11.83;;
4547;SDS011;2286;51.570;7.090;2022-08-18T12:35:10;16.27;;;15.17;;
4547;SDS011;2286;51.570;7.090;2022-08-18T12:37:40;14.17;;;13.17;;
4547;SDS011;2286;51.570;7.090;2022-08-18T12:40:09;16.47;;;15.27;;
4547;SDS011;2286;51.570;7.090;2022-08-18T12:42:37;18.27;;;17.07;;
4547;SDS011;2286;51.570;7.090;2022-08-18T12:45:06;21.60;;;20.07;;
4547;SDS011;2286;51.570;7.090;2022-08-18T12:47:35;20.70;;;19.20;;
4547;SDS011;2286;51.570;7.090;2022-08-18T12:50:05;22.40;;;20.90;;
4547;SDS011;2286;51.570;7.090;2022-08-18T12:52:32;19.67;;;18.37;;
4547;SDS011;2286;51.570;7.090;2022-08-18T12:54:59;20.43;;;19.03;;
4547;SDS011;2286;51.570;7.090;2022-08-18T12:57:27;19.47;;;18.17;;
4547;SDS011;2286;51.570;7.090;2022-08-18T12:59:54;12.73;;;11.93;;
4547;SDS011;2286;51.570;7.090;2022-08-18T13:02:22;13.20;;;12.23;;
4547;SDS011;2286;51.570;7.090;2022-08-18T13:04:49;11.77;;;11.00;;
4547;SDS011;2286;51.570;7.090;2022-08-18T13:07:16;10.80;;;10.00;;
4547;SDS011;2286;51.570;7.090;2022-08-18T13:09:43;9.53;;;8.90;;
4547;SDS011;2286;51.570;7.090;2022-08-18T13:12:10;10.73;;;9.93;;
4547;SDS011;2286;51.570;7.090;2022-08-18T13:14:38;10.60;;;9.80;;
4547;SDS011;2286;51.570;7.090;2022-08-18T13:17:05;10.97;;;10.20;;
4547;SDS011;2286;51.570;7.090;2022-08-18T13:19:33;10.33;;;9.53;;
4547;SDS011;2286;51.570;7.090;2022-08-18T13:22:00;11.07;;;10.27;;
4547;SDS011;2286;51.570;7.090;2022-08-18T13:24:28;9.53;;;8.77;;
4547;SDS011;2286;51.570;7.090;2022-08-18T13:26:55;10.60;;;9.80;;
4547;SDS011;2286;51.570;7.090;2022-08-18T13:29:21;11.23;;;10.43;;
4547;SDS011;2286;51.570;7.090;2022-08-18T13:31:49;10.87;;;10.17;;
4547;SDS011;2286;51.570;7.090;2022-08-18T13:34:21;10.53;;;9.83;;
4547;SDS011;2286;51.570;7.090;2022-08-18T13:36:50;9.57;;;8.93;;
4547;SDS011;2286;51.570;7.090;2022-08-18T13:39:17;8.97;;;8.30;;
4547;SDS011;2286;51.570;7.090;2022-08-18T13:41:45;16.83;;;9.20;;
4547;SDS011;2286;51.570;7.090;2022-08-18T13:44:14;9.80;;;8.90;;
4547;SDS011;2286;51.570;7.090;2022-08-18T13:46:42;9.87;;;9.10;;
4547;SDS011;2286;51.570;7.090;2022-08-18T13:49:10;9.20;;;8.60;;
4547;SDS011;2286;51.570;7.090;2022-08-18T13:51:38;9.80;;;9.17;;
4547;SDS011;2286;51.570;7.090;2022-08-18T13:54:06;8.67;;;8.17;;
4547;SDS011;2286;51.570;7.090;2022-08-18T13:56:34;8.20;;;7.70;;
4547;SDS011;2286;51.570;7.090;2022-08-18T13:59:01;8.47;;;7.97;;
4547;SDS011;2286;51.570;7.090;2022-08-18T14:01:29;6.57;;;6.17;;
4547;SDS011;2286;51.570;7.090;2022-08-18T14:03:56;6.70;;;6.30;;
4547;SDS011;2286;51.570;7.090;2022-08-18T14:06:23;6.10;;;5.60;;
4547;SDS011;2286;51.570;7.090;2022-08-18T14:08:51;5.83;;;5.27;;
4547;SDS011;2286;51.570;7.090;2022-08-18T14:11:20;5.17;;;4.77;;
4547;SDS011;2286;51.570;7.090;2022-08-18T14:13:51;5.23;;;4.83;;
4547;SDS011;2286;51.570;7.090;2022-08-18T14:16:18;6.50;;;6.10;;
4547;SDS011;2286;51.570;7.090;2022-08-18T14:18:46;6.43;;;6.03;;
4547;SDS011;2286;51.570;7.090;2022-08-18T14:21:33;6.03;;;5.53;;
4547;SDS011;2286;51.570;7.090;2022-08-18T14:24:18;5.87;;;5.37;;
4547;SDS011;2286;51.570;7.090;2022-08-18T14:27:04;5.50;;;5.10;;
4547;SDS011;2286;51.570;7.090;2022-08-18T14:29:30;4.43;;;4.03;;
4547;SDS011;2286;51.570;7.090;2022-08-18T14:31:57;4.63;;;4.33;;
4547;SDS011;2286;51.570;7.090;2022-08-18T14:34:24;4.43;;;4.13;;
4547;SDS011;2286;51.570;7.090;2022-08-18T14:36:51;4.47;;;4.17;;
4547;SDS011;2286;51.570;7.090;2022-08-18T14:39:18;4.00;;;3.70;;
4547;SDS011;2286;51.570;7.090;2022-08-18T14:41:45;4.70;;;4.30;;
4547;SDS011;2286;51.570;7.090;2022-08-18T14:44:13;4.13;;;3.93;;
4547;SDS011;2286;51.570;7.090;2022-08-18T14:46:40;4.00;;;3.70;;
4547;SDS011;2286;51.570;7.090;2022-08-18T14:49:11;3.93;;;3.60;;
4547;SDS011;2286;51.570;7.090;2022-08-18T14:51:38;3.87;;;3.57;;
4547;SDS011;2286;51.570;7.090;2022-08-18T14:54:07;5.10;;;4.53;;
4547;SDS011;2286;51.570;7.090;2022-08-18T14:56:34;6.07;;;4.40;;
4547;SDS011;2286;51.570;7.090;2022-08-18T14:59:01;4.57;;;4.37;;
4547;SDS011;2286;51.570;7.090;2022-08-18T15:01:32;5.00;;;4.60;;
4547;SDS011;2286;51.570;7.090;2022-08-18T15:03:59;5.27;;;4.87;;
4547;SDS011;2286;51.570;7.090;2022-08-18T15:06:27;5.17;;;4.70;;
4547;SDS011;2286;51.570;7.090;2022-08-18T15:08:54;6.40;;;5.40;;
4547;SDS011;2286;51.570;7.090;2022-08-18T15:11:21;4.77;;;4.37;;
4547;SDS011;2286;51.570;7.090;2022-08-18T15:13:48;5.10;;;4.80;;
4547;SDS011;2286;51.570;7.090;2022-08-18T15:16:15;5.23;;;4.83;;
4547;SDS011;2286;51.570;7.090;2022-08-18T15:18:44;5.53;;;5.13;;
4547;SDS011;2286;51.570;7.090;2022-08-18T15:21:12;5.90;;;5.60;;
4547;SDS011;2286;51.570;7.090;2022-08-18T15:23:57;6.37;;;5.97;;
4547;SDS011;2286;51.570;7.090;2022-08-18T15:26:41;6.00;;;5.60;;
4547;SDS011;2286;51.570;7.090;2022-08-18T15:29:08;9.87;;;6.53;;
4547;SDS011;2286;51.570;7.090;2022-08-18T15:31:36;6.20;;;5.57;;
4547;SDS011;2286;51.570;7.090;2022-08-18T15:34:05;6.90;;;5.73;;
4547;SDS011;2286;51.570;7.090;2022-08-18T15:36:31;7.40;;;6.73;;
4547;SDS011;2286;51.570;7.090;2022-08-18T15:39:00;6.13;;;5.73;;
4547;SDS011;2286;51.570;7.090;2022-08-18T15:41:30;7.17;;;6.73;;
4547;SDS011;2286;51.570;7.090;2022-08-18T15:43:59;5.90;;;5.60;;
4547;SDS011;2286;51.570;7.090;2022-08-18T15:46:26;7.73;;;6.10;;
4547;SDS011;2286;51.570;7.090;2022-08-18T15:48:54;6.33;;;5.93;;
4547;SDS011;2286;51.570;7.090;2022-08-18T15:51:22;7.33;;;6.83;;
4547;SDS011;2286;51.570;7.090;2022-08-18T15:53:49;7.03;;;6.53;;
4547;SDS011;2286;51.570;7.090;2022-08-18T15:56:16;6.50;;;6.10;;